Rich Square, North Carolina
Current Conditions -  °F | °C
As of 11:35 PM on Tuesday 21 Oct 2014 (Local Time) from KASJ Reporting Station
Scattered Clouds Scattered Clouds  
Wind Chill: 57°   Ceiling: Unl
Heat Index: 57°   Visibility: 10mi
Dew Point: 47°   Wind: 0mph
Humidity: 68%   Direction: NA
Pressure: 29.88"   Gusts: NA
Location:  36.27°N, 77.28°W
Report Text: KASJ 220335Z AUTO 00000KT 10SM SCT110 14/08 A2988 RMK AO2 T01410083
Loading
Personal Weather Stations






























Interactive Weather Map
Tropical Storm Tracking
New forecast layout! Learn more

10-Day Weather Forecast

Advertisements
Track Severe Weather on mobile